createdAt,value
2022-12-06T00:01:34.672Z,14.70
2022-12-06T00:04:06.958Z,15.50
2022-12-06T00:06:40.745Z,15.00
2022-12-06T00:09:16.724Z,13.93
2022-12-06T00:11:44.837Z,14.97
2022-12-06T00:14:13.746Z,14.63
2022-12-06T00:16:42.500Z,13.97
2022-12-06T00:19:13.590Z,14.33
2022-12-06T00:21:42.667Z,12.63
2022-12-06T00:24:15.482Z,13.70
2022-12-06T00:26:46.337Z,13.70
2022-12-06T00:29:17.178Z,12.93
2022-12-06T00:31:45.752Z,12.83
2022-12-06T00:34:14.094Z,14.10
2022-12-06T00:36:43.531Z,14.00
2022-12-06T00:39:15.687Z,12.90
2022-12-06T00:41:44.952Z,14.83
2022-12-06T00:44:13.931Z,14.07
2022-12-06T00:46:42.456Z,14.17
2022-12-06T00:49:11.354Z,12.23
2022-12-06T00:51:40.457Z,12.20
2022-12-06T00:54:12.181Z,13.20
2022-12-06T00:56:42.930Z,11.83
2022-12-06T00:59:12.040Z,14.27
2022-12-06T01:01:40.289Z,12.10
2022-12-06T01:04:09.331Z,12.00
2022-12-06T01:06:38.923Z,14.10
2022-12-06T01:09:14.999Z,12.03
2022-12-06T01:11:44.547Z,13.23
2022-12-06T01:14:12.703Z,12.43
2022-12-06T01:16:40.943Z,15.07
2022-12-06T01:19:09.175Z,12.67
2022-12-06T01:21:37.285Z,13.47
2022-12-06T01:24:06.158Z,13.83
2022-12-06T01:26:36.533Z,13.80
2022-12-06T01:29:06.735Z,14.30
2022-12-06T01:31:38.830Z,12.57
2022-12-06T01:34:09.023Z,12.60
2022-12-06T01:36:37.163Z,12.83
2022-12-06T01:39:10.303Z,12.50
2022-12-06T01:41:39.955Z,12.80
2022-12-06T01:44:44.263Z,11.07
2022-12-06T01:47:19.877Z,12.23
2022-12-06T01:49:57.673Z,12.70
2022-12-06T01:52:32.487Z,12.83
2022-12-06T01:55:02.542Z,12.13
2022-12-06T01:57:31.842Z,13.57
2022-12-06T02:00:02.352Z,11.73
2022-12-06T02:02:30.680Z,13.20
2022-12-06T02:05:01.597Z,13.20
2022-12-06T02:07:32.477Z,14.47
2022-12-06T02:10:02.516Z,12.90
2022-12-06T02:12:30.735Z,12.00
2022-12-06T02:15:00.347Z,13.00
2022-12-06T02:17:45.879Z,13.07
2022-12-06T02:20:32.910Z,12.13
2022-12-06T02:23:53.131Z,13.90
2022-12-06T02:26:39.714Z,13.83
2022-12-06T02:30:07.950Z,13.23
2022-12-06T02:32:54.507Z,12.73
2022-12-06T02:35:34.324Z,13.70
2022-12-06T02:38:13.163Z,12.70
2022-12-06T02:40:49.823Z,13.60
2022-12-06T02:43:22.854Z,12.87
2022-12-06T02:45:57.961Z,12.37
2022-12-06T02:48:28.313Z,13.20
2022-12-06T02:51:02.629Z,15.70
2022-12-06T02:53:35.525Z,13.43
2022-12-06T02:56:04.152Z,13.33
2022-12-06T02:58:36.582Z,13.87
2022-12-06T03:01:10.520Z,11.87
2022-12-06T03:04:16.090Z,11.07
2022-12-06T03:07:13.718Z,12.70
2022-12-06T03:09:59.784Z,15.57
2022-12-06T03:12:37.906Z,12.27
2022-12-06T03:15:14.768Z,12.43
2022-12-06T03:17:51.417Z,12.53
2022-12-06T03:20:29.632Z,12.33
2022-12-06T03:23:05.951Z,12.20
2022-12-06T03:25:36.293Z,13.37
2022-12-06T03:28:07.889Z,12.07
2022-12-06T03:30:36.477Z,13.30
2022-12-06T03:33:05.910Z,12.23
2022-12-06T03:35:38.024Z,13.40
2022-12-06T03:38:12.952Z,13.03
2022-12-06T03:40:48.491Z,12.97
2022-12-06T03:43:17.140Z,12.50
2022-12-06T03:45:56.373Z,12.67
2022-12-06T03:48:32.586Z,11.90
2022-12-06T03:51:07.945Z,11.80
2022-12-06T03:53:36.188Z,13.20
2022-12-06T03:56:04.483Z,11.83
2022-12-06T03:58:32.597Z,12.10
2022-12-06T04:01:04.727Z,11.43
2022-12-06T04:03:32.940Z,12.27
2022-12-06T04:06:04.467Z,13.17
2022-12-06T04:08:33.438Z,12.53
2022-12-06T04:11:01.587Z,12.17
2022-12-06T04:13:30.487Z,12.03
2022-12-06T04:16:01.421Z,13.50
2022-12-06T04:18:29.461Z,11.73
2022-12-06T04:21:20.124Z,12.63
2022-12-06T04:23:52.426Z,13.77
2022-12-06T04:26:23.612Z,12.67
2022-12-06T04:29:11.574Z,13.40
2022-12-06T04:31:58.283Z,13.00
2022-12-06T04:34:43.937Z,13.37
2022-12-06T04:37:29.679Z,12.80
2022-12-06T04:39:59.456Z,14.77
2022-12-06T04:42:45.061Z,13.77
2022-12-06T04:45:13.492Z,12.47
2022-12-06T04:47:41.600Z,13.37
2022-12-06T04:50:10.477Z,13.50
2022-12-06T04:52:38.646Z,12.57
2022-12-06T04:55:09.146Z,13.37
2022-12-06T04:57:37.231Z,14.20
2022-12-06T05:00:07.626Z,15.10
2022-12-06T05:02:35.716Z,13.33
2022-12-06T05:05:03.882Z,13.43
2022-12-06T05:07:32.110Z,14.33
2022-12-06T05:10:00.722Z,11.97
2022-12-06T05:12:30.298Z,13.23
2022-12-06T05:14:58.390Z,13.40
2022-12-06T05:17:26.490Z,11.93
2022-12-06T05:19:54.633Z,13.33
2022-12-06T05:22:22.717Z,12.57
2022-12-06T05:24:51.704Z,12.50
2022-12-06T05:27:19.829Z,12.53
2022-12-06T05:29:49.329Z,13.17
2022-12-06T05:32:17.416Z,12.27
2022-12-06T05:34:45.504Z,13.53
2022-12-06T05:37:13.591Z,11.73
2022-12-06T05:39:41.669Z,13.17
2022-12-06T05:42:10.381Z,12.93
2022-12-06T05:44:38.653Z,12.30
2022-12-06T05:47:08.267Z,13.63
2022-12-06T05:49:36.423Z,13.70
2022-12-06T05:52:04.550Z,14.83
2022-12-06T05:54:32.693Z,13.50
2022-12-06T05:57:00.788Z,13.93
2022-12-06T05:59:28.944Z,14.27
2022-12-06T06:01:57.240Z,12.40
2022-12-06T06:04:26.914Z,14.87
2022-12-06T06:06:54.993Z,16.67
2022-12-06T06:09:23.145Z,14.27
2022-12-06T06:11:51.269Z,15.63
2022-12-06T06:14:19.399Z,16.43
2022-12-06T06:16:47.609Z,15.30
2022-12-06T06:19:16.022Z,14.17
2022-12-06T06:21:45.510Z,15.37
2022-12-06T06:24:13.624Z,16.00
2022-12-06T06:26:41.790Z,15.23
2022-12-06T06:29:09.898Z,13.63
2022-12-06T06:31:38.180Z,16.03
2022-12-06T06:34:06.291Z,15.40
2022-12-06T06:36:34.422Z,15.17
2022-12-06T06:39:03.924Z,13.80
2022-12-06T06:41:32.048Z,15.33
2022-12-06T06:44:00.157Z,15.40
2022-12-06T06:46:28.363Z,13.53
2022-12-06T06:48:56.622Z,15.67
2022-12-06T06:51:25.023Z,15.50
2022-12-06T06:53:53.119Z,14.87
2022-12-06T06:56:22.685Z,14.50
2022-12-06T06:58:51.184Z,13.13
2022-12-06T07:01:22.230Z,14.50
2022-12-06T07:03:51.925Z,14.20
2022-12-06T07:06:20.645Z,14.53
2022-12-06T07:08:48.818Z,15.40
2022-12-06T07:11:17.147Z,14.70
2022-12-06T07:13:52.396Z,15.00
2022-12-06T07:16:20.835Z,12.67
2022-12-06T07:18:49.080Z,16.67
2022-12-06T07:21:18.236Z,13.80
2022-12-06T07:23:46.688Z,15.00
2022-12-06T07:26:18.656Z,13.53
2022-12-06T07:28:50.579Z,12.30
2022-12-06T07:31:21.595Z,12.63
2022-12-06T07:33:53.451Z,12.60
2022-12-06T07:36:22.780Z,12.53
2022-12-06T07:38:53.220Z,12.20
2022-12-06T07:41:42.373Z,13.23
2022-12-06T07:44:31.551Z,11.50
2022-12-06T07:47:00.088Z,13.10
2022-12-06T07:49:29.210Z,12.13
2022-12-06T07:51:58.327Z,12.80
2022-12-06T07:54:26.718Z,10.87
2022-12-06T07:56:56.266Z,12.97
2022-12-06T07:59:26.621Z,13.13
2022-12-06T08:01:55.389Z,11.00
2022-12-06T08:04:23.694Z,11.57
2022-12-06T08:06:51.867Z,10.87
2022-12-06T08:09:19.961Z,11.80
2022-12-06T08:11:48.069Z,11.10
2022-12-06T08:14:16.198Z,11.90
2022-12-06T08:16:45.710Z,14.27
2022-12-06T08:19:13.867Z,13.53
2022-12-06T08:21:42.014Z,16.67
2022-12-06T08:24:10.334Z,10.23
2022-12-06T08:26:38.514Z,10.27
2022-12-06T08:29:06.689Z,11.57
2022-12-06T08:31:35.635Z,12.67
2022-12-06T08:34:05.423Z,11.67
2022-12-06T08:36:33.611Z,10.33
2022-12-06T08:39:02.117Z,14.97
2022-12-06T08:41:59.275Z,14.00
2022-12-06T08:44:29.866Z,10.40
2022-12-06T08:47:00.415Z,12.30
2022-12-06T08:49:31.817Z,11.93
2022-12-06T08:52:01.456Z,11.90
2022-12-06T08:54:30.642Z,9.63
2022-12-06T08:56:58.930Z,10.80
2022-12-06T08:59:27.330Z,9.30
2022-12-06T09:01:55.477Z,10.23
2022-12-06T09:04:24.182Z,10.10
2022-12-06T09:06:53.742Z,11.60
2022-12-06T09:09:21.901Z,10.20
2022-12-06T09:11:51.454Z,10.97
2022-12-06T09:14:22.150Z,9.20
2022-12-06T09:16:51.765Z,11.20
2022-12-06T09:19:21.080Z,9.93
2022-12-06T09:21:49.231Z,13.67
2022-12-06T09:24:20.435Z,11.43
2022-12-06T09:26:49.097Z,11.07
2022-12-06T09:29:18.835Z,10.57
2022-12-06T09:31:47.451Z,9.83
2022-12-06T09:34:16.864Z,10.73
2022-12-06T09:36:50.692Z,10.23
2022-12-06T09:39:26.512Z,10.67
2022-12-06T09:42:47.293Z,10.37
2022-12-06T09:45:54.810Z,12.27
2022-12-06T09:48:58.082Z,10.67
2022-12-06T09:51:47.576Z,12.07
2022-12-06T09:54:51.086Z,10.70
2022-12-06T09:57:33.858Z,11.40
2022-12-06T10:00:12.002Z,10.97
2022-12-06T10:03:15.420Z,12.00
2022-12-06T10:06:01.004Z,11.00
2022-12-06T10:09:04.333Z,11.23
2022-12-06T10:12:10.757Z,11.30
2022-12-06T10:15:05.126Z,9.07
2022-12-06T10:17:54.252Z,9.97
2022-12-06T10:20:36.107Z,9.40
2022-12-06T10:23:23.819Z,10.40
2022-12-06T10:26:08.708Z,11.33
2022-12-06T10:28:46.807Z,10.70
2022-12-06T10:31:24.767Z,10.47
2022-12-06T10:33:59.505Z,9.77
2022-12-06T10:36:43.787Z,9.67
2022-12-06T10:39:22.763Z,9.27
2022-12-06T10:42:01.034Z,10.90
2022-12-06T10:44:38.914Z,8.70
2022-12-06T10:47:14.427Z,9.40
2022-12-06T10:49:56.753Z,9.80
2022-12-06T10:52:37.222Z,9.87
2022-12-06T10:55:23.471Z,8.93
2022-12-06T10:58:12.433Z,9.50
2022-12-06T11:00:55.315Z,8.17
2022-12-06T11:03:33.134Z,11.07
2022-12-06T11:06:10.653Z,9.27
2022-12-06T11:08:44.914Z,10.23
2022-12-06T11:11:20.387Z,9.57
2022-12-06T11:13:54.879Z,9.73
2022-12-06T11:16:31.180Z,8.57
2022-12-06T11:19:20.788Z,8.93
2022-12-06T11:21:58.207Z,9.30
2022-12-06T11:24:33.730Z,9.33
2022-12-06T11:27:10.907Z,9.27
2022-12-06T11:29:39.116Z,10.30
2022-12-06T11:32:09.874Z,9.47
2022-12-06T11:34:43.602Z,8.13
2022-12-06T11:37:18.508Z,8.50
2022-12-06T11:39:48.740Z,8.50
2022-12-06T11:42:26.377Z,8.83
2022-12-06T11:45:01.897Z,7.83
2022-12-06T11:47:31.783Z,10.20
2022-12-06T11:50:05.833Z,8.83
2022-12-06T11:52:44.514Z,7.93
2022-12-06T11:55:19.774Z,8.10
2022-12-06T11:57:54.449Z,7.23
2022-12-06T12:00:24.859Z,6.63
2022-12-06T12:02:57.455Z,7.13
2022-12-06T12:05:30.447Z,7.37
2022-12-06T12:08:02.868Z,6.93
2022-12-06T12:10:38.405Z,7.80
2022-12-06T12:13:40.665Z,9.60
2022-12-06T12:16:18.172Z,7.70
2022-12-06T12:18:59.369Z,8.20
2022-12-06T12:21:37.137Z,8.03
2022-12-06T12:24:27.458Z,7.60
2022-12-06T12:26:55.577Z,7.37
2022-12-06T12:29:23.674Z,9.63
2022-12-06T12:31:58.740Z,8.27
2022-12-06T12:34:30.674Z,6.73
2022-12-06T12:37:02.180Z,7.73
2022-12-06T12:39:36.036Z,9.23
2022-12-06T12:42:04.962Z,11.70
2022-12-06T12:44:38.429Z,7.70
2022-12-06T12:47:19.609Z,7.43
2022-12-06T12:50:03.329Z,6.80
2022-12-06T12:52:38.333Z,7.40
2022-12-06T12:55:19.220Z,7.23
2022-12-06T12:57:50.209Z,7.37
2022-12-06T13:00:21.749Z,7.27
2022-12-06T13:02:56.969Z,7.53
2022-12-06T13:05:33.962Z,7.23
2022-12-06T13:08:13.937Z,6.70
2022-12-06T13:10:48.235Z,7.30
2022-12-06T13:13:21.261Z,7.67
2022-12-06T13:15:53.357Z,6.67
2022-12-06T13:18:27.015Z,7.20
2022-12-06T13:21:02.114Z,7.40
2022-12-06T13:23:37.185Z,8.77
2022-12-06T13:26:20.904Z,7.17
2022-12-06T13:28:55.852Z,6.33
2022-12-06T13:31:33.101Z,6.10
2022-12-06T13:34:15.656Z,7.33
2022-12-06T13:36:46.490Z,6.00
2022-12-06T13:39:40.746Z,6.13
2022-12-06T13:42:41.022Z,7.07
2022-12-06T13:45:43.235Z,6.10
2022-12-06T13:48:38.979Z,7.60
2022-12-06T13:51:13.321Z,5.70
2022-12-06T13:54:41.845Z,6.60
2022-12-06T13:57:29.527Z,6.80
2022-12-06T13:59:58.306Z,6.67
2022-12-06T14:02:46.891Z,6.57
2022-12-06T14:08:34.058Z,6.43
2022-12-06T14:11:17.823Z,5.97
2022-12-06T14:13:50.175Z,6.87
2022-12-06T14:16:28.927Z,6.13
2022-12-06T14:18:57.346Z,6.47
2022-12-06T14:21:30.451Z,6.53
2022-12-06T14:23:59.311Z,5.97
2022-12-06T14:26:31.753Z,5.20
2022-12-06T14:29:03.266Z,5.97
2022-12-06T14:31:39.864Z,5.93
2022-12-06T14:34:25.638Z,5.53
2022-12-06T14:36:54.704Z,6.10
2022-12-06T14:39:26.930Z,5.63
2022-12-06T14:42:17.209Z,6.07
2022-12-06T14:44:55.010Z,5.53
2022-12-06T14:47:25.582Z,5.73
2022-12-06T14:50:14.205Z,5.10
2022-12-06T14:53:03.735Z,7.87
2022-12-06T14:55:35.130Z,5.17
2022-12-06T14:58:16.418Z,5.10
2022-12-06T15:00:56.163Z,5.43
2022-12-06T15:03:30.838Z,5.33
2022-12-06T15:06:17.582Z,5.40
2022-12-06T15:08:54.898Z,5.40
2022-12-06T15:11:49.228Z,5.20
2022-12-06T15:14:20.575Z,4.93
2022-12-06T15:17:01.510Z,4.83
2022-12-06T15:19:33.537Z,4.87
2022-12-06T15:22:02.110Z,5.33
2022-12-06T15:24:31.586Z,6.13
2022-12-06T15:26:59.710Z,5.07
2022-12-06T15:29:27.756Z,4.83
2022-12-06T15:31:57.686Z,5.20
2022-12-06T15:34:28.878Z,5.20
2022-12-06T15:37:36.438Z,5.63
2022-12-06T15:39:48.376Z,5.50
2022-12-06T15:42:21.228Z,4.90
2022-12-06T15:44:52.539Z,6.03
2022-12-06T15:47:22.070Z,5.30
2022-12-06T15:49:51.652Z,5.30
2022-12-06T15:52:23.227Z,5.13
2022-12-06T15:54:51.672Z,6.37
2022-12-06T15:57:19.789Z,5.27
2022-12-06T15:59:47.861Z,5.13
2022-12-06T16:02:18.253Z,5.13
2022-12-06T16:04:50.493Z,5.67
2022-12-06T16:07:19.623Z,5.50
2022-12-06T16:09:48.805Z,7.00
2022-12-06T16:12:17.527Z,5.60
2022-12-06T16:14:45.682Z,6.20
2022-12-06T16:17:13.798Z,5.67
2022-12-06T16:19:59.318Z,5.30
2022-12-06T16:22:42.658Z,5.40
2022-12-06T16:25:10.994Z,6.73
2022-12-06T16:27:39.363Z,5.80
2022-12-06T16:30:09.447Z,5.70
2022-12-06T16:32:38.171Z,6.00
2022-12-06T16:35:06.799Z,6.83
2022-12-06T16:37:36.241Z,5.70
2022-12-06T16:40:04.762Z,5.80
2022-12-06T16:42:32.840Z,5.17
2022-12-06T16:45:01.117Z,5.57
2022-12-06T16:49:56.739Z,5.40
2022-12-06T16:52:24.782Z,5.40
2022-12-06T16:54:54.359Z,5.80
2022-12-06T16:57:22.455Z,5.97
2022-12-06T16:59:50.768Z,5.40
2022-12-06T17:02:27.521Z,5.47
2022-12-06T17:04:56.442Z,5.70
2022-12-06T17:07:24.672Z,4.93
2022-12-06T17:09:54.388Z,4.73
2022-12-06T17:12:22.495Z,5.13
2022-12-06T17:14:50.965Z,8.57
2022-12-06T17:17:22.447Z,5.20
2022-12-06T17:19:50.939Z,5.23
2022-12-06T17:22:19.646Z,5.57
2022-12-06T17:24:47.969Z,5.63
2022-12-06T17:27:18.251Z,8.00
2022-12-06T17:29:46.580Z,7.97
2022-12-06T17:32:15.087Z,6.90
2022-12-06T17:34:43.536Z,7.83
2022-12-06T17:37:12.068Z,8.63
2022-12-06T17:39:40.412Z,9.03
2022-12-06T17:42:26.131Z,8.40
2022-12-06T17:44:55.550Z,10.50
2022-12-06T17:47:23.666Z,8.97
2022-12-06T17:49:52.621Z,9.87
2022-12-06T17:52:20.893Z,8.90
2022-12-06T17:54:48.927Z,8.27
2022-12-06T17:57:18.757Z,7.90
2022-12-06T17:59:48.987Z,8.07
2022-12-06T18:02:23.510Z,10.40
2022-12-06T18:04:52.537Z,8.93
2022-12-06T18:07:21.157Z,9.30
2022-12-06T18:09:49.941Z,8.27
2022-12-06T18:12:18.701Z,8.13
2022-12-06T18:14:46.965Z,8.63
2022-12-06T18:17:15.121Z,8.57
2022-12-06T18:19:46.756Z,8.67
2022-12-06T18:22:16.040Z,9.77
2022-12-06T18:24:44.637Z,8.27
2022-12-06T18:27:12.836Z,9.33
2022-12-06T18:29:40.885Z,7.53
2022-12-06T18:32:08.997Z,7.47
2022-12-06T18:34:37.364Z,8.90
2022-12-06T18:37:06.818Z,8.33
2022-12-06T18:39:34.915Z,8.83
2022-12-06T18:42:02.947Z,8.03
2022-12-06T18:44:31.247Z,8.20
2022-12-06T18:46:59.294Z,9.00
2022-12-06T18:49:27.404Z,8.37
2022-12-06T18:51:55.490Z,9.17
2022-12-06T18:54:26.267Z,10.20
2022-12-06T18:56:54.343Z,9.83
2022-12-06T18:59:27.392Z,8.83
2022-12-06T19:01:56.499Z,9.80
2022-12-06T19:04:24.650Z,10.27
2022-12-06T19:06:52.807Z,11.87
2022-12-06T19:09:22.397Z,11.30
2022-12-06T19:11:51.850Z,11.57
2022-12-06T19:14:20.335Z,8.97
2022-12-06T19:16:50.784Z,10.37
2022-12-06T19:19:21.376Z,10.20
2022-12-06T19:21:52.593Z,10.27
2022-12-06T19:24:23.433Z,9.87
2022-12-06T19:26:55.193Z,9.67
2022-12-06T19:29:23.382Z,10.37
2022-12-06T19:31:51.916Z,10.00
2022-12-06T19:34:23.375Z,10.63
2022-12-06T19:36:53.693Z,10.43
2022-12-06T19:39:22.881Z,8.87
2022-12-06T19:42:09.737Z,8.60
2022-12-06T19:44:37.831Z,9.17
2022-12-06T19:47:06.169Z,8.47
2022-12-06T19:49:34.295Z,7.60
2022-12-06T19:52:02.910Z,7.93
2022-12-06T19:54:33.994Z,8.10
2022-12-06T19:57:03.531Z,7.13
2022-12-06T19:59:35.417Z,6.77
2022-12-06T20:02:05.111Z,8.17
2022-12-06T20:04:36.448Z,7.50
2022-12-06T20:07:05.269Z,7.30
2022-12-06T20:09:34.777Z,8.03
2022-12-06T20:12:05.921Z,7.47
2022-12-06T20:14:40.505Z,8.33
2022-12-06T20:17:12.617Z,7.80
2022-12-06T20:19:42.987Z,7.90
2022-12-06T20:22:11.635Z,8.33
2022-12-06T20:24:40.348Z,7.37
2022-12-06T20:27:10.486Z,8.90
2022-12-06T20:29:38.717Z,7.53
2022-12-06T20:32:07.346Z,7.80
2022-12-06T20:34:35.568Z,7.83
2022-12-06T20:37:06.371Z,6.90
2022-12-06T20:39:36.384Z,7.90
2022-12-06T20:42:06.311Z,7.17
2022-12-06T20:44:36.538Z,8.73
2022-12-06T20:47:05.052Z,7.93
2022-12-06T20:49:33.331Z,8.47
2022-12-06T20:52:02.788Z,7.53
2022-12-06T20:54:31.376Z,7.33
2022-12-06T20:56:59.511Z,9.33
2022-12-06T20:59:29.267Z,9.60
2022-12-06T21:01:58.883Z,8.00
2022-12-06T21:04:27.974Z,9.40
2022-12-06T21:06:56.745Z,8.33
2022-12-06T21:09:24.839Z,8.13
2022-12-06T21:11:52.952Z,9.23
2022-12-06T21:14:21.017Z,8.63
2022-12-06T21:16:49.278Z,10.13
2022-12-06T21:19:20.919Z,6.77
2022-12-06T21:21:55.176Z,8.13
2022-12-06T21:24:23.543Z,8.63
2022-12-06T21:26:51.636Z,8.03
2022-12-06T21:29:30.066Z,8.37
2022-12-06T21:32:00.958Z,9.80
2022-12-06T21:34:30.459Z,9.23
2022-12-06T21:36:59.001Z,10.70
2022-12-06T21:39:27.088Z,10.60
2022-12-06T21:41:55.213Z,10.17
2022-12-06T21:44:23.764Z,9.97
2022-12-06T21:46:53.705Z,11.17
2022-12-06T21:49:21.929Z,10.17
2022-12-06T21:51:55.139Z,11.57
2022-12-06T21:54:26.782Z,10.67
2022-12-06T21:56:54.885Z,12.00
2022-12-06T21:59:23.857Z,10.87
2022-12-06T22:01:52.333Z,10.23
2022-12-06T22:04:20.534Z,9.93
2022-12-06T22:06:48.696Z,10.93
2022-12-06T22:09:18.182Z,11.37
2022-12-06T22:11:46.387Z,11.03
2022-12-06T22:14:14.521Z,11.70
2022-12-06T22:16:42.771Z,12.00
2022-12-06T22:19:10.894Z,11.00
2022-12-06T22:21:39.044Z,11.63
2022-12-06T22:24:07.929Z,11.23
2022-12-06T22:26:37.657Z,11.70
2022-12-06T22:29:06.295Z,9.33
2022-12-06T22:31:36.224Z,10.30
2022-12-06T22:34:04.892Z,10.73
2022-12-06T22:36:34.688Z,11.10
2022-12-06T22:39:05.803Z,10.50
2022-12-06T22:41:34.131Z,11.13
2022-12-06T22:44:06.188Z,9.70
2022-12-06T22:46:36.521Z,11.33
2022-12-06T22:49:06.399Z,10.00
2022-12-06T22:51:37.369Z,11.93
2022-12-06T22:54:08.408Z,13.47
2022-12-06T22:56:36.508Z,13.33
2022-12-06T22:59:06.240Z,10.83
2022-12-06T23:01:36.767Z,14.40
2022-12-06T23:04:07.772Z,13.47
2022-12-06T23:06:37.919Z,13.00
2022-12-06T23:09:08.182Z,13.30
2022-12-06T23:11:37.747Z,11.80
2022-12-06T23:14:08.117Z,13.90
2022-12-06T23:16:36.498Z,13.57
2022-12-06T23:19:05.799Z,13.00
2022-12-06T23:21:36.932Z,11.93
2022-12-06T23:24:08.256Z,12.87
2022-12-06T23:26:39.487Z,11.93
2022-12-06T23:29:09.787Z,12.60
2022-12-06T23:31:40.295Z,13.13
2022-12-06T23:34:13.105Z,12.80
2022-12-06T23:36:41.546Z,14.73
2022-12-06T23:39:10.224Z,13.17
2022-12-06T23:41:38.515Z,11.67
2022-12-06T23:44:08.840Z,11.27
2022-12-06T23:46:39.479Z,12.33
2022-12-06T23:49:09.146Z,13.80
2022-12-06T23:51:39.798Z,14.80
2022-12-06T23:54:09.093Z,10.57
2022-12-06T23:56:40.382Z,12.67
2022-12-06T23:59:14.343Z,12.43
